Time;durP1;ratioP1;P1;durP2;ratioP2;P2;SDS_P1;SDS_P2;PMS_P1;PMS_P2;Temp;Humidity;BMP_temperature;BMP_pressure;BME280_temperature;BME280_humidity;BME280_pressure;Samples;Min_cycle;Max_cycle;Signal;HPM_P1;HPM_P2
2022/12/07 00:01:04;;;;;;;227.60;78.13;;;7.00;99.90;;;;;;5075907;28;20027;-77
2022/12/07 00:03:29;;;;;;;258.15;87.47;;;7.00;99.90;;;;;;5075454;28;20479;-77
2022/12/07 00:05:58;;;;;;;224.45;73.57;;;7.00;99.90;;;;;;5075481;28;20016;-78
2022/12/07 00:08:24;;;;;;;538.88;181.93;;;7.00;99.90;;;;;;5075629;28;20032;-78
2022/12/07 00:10:50;;;;;;;237.18;69.35;;;7.00;99.90;;;;;;5076059;28;20020;-77
2022/12/07 00:13:15;;;;;;;230.63;65.93;;;7.00;99.90;;;;;;5075504;28;20021;-77
2022/12/07 00:15:41;;;;;;;239.68;71.78;;;6.90;99.90;;;;;;5074467;28;20024;-76
2022/12/07 00:18:07;;;;;;;237.23;72.93;;;6.90;99.90;;;;;;5075347;28;20039;-78
2022/12/07 00:20:33;;;;;;;218.77;70.63;;;6.90;99.90;;;;;;5074516;28;20467;-77
2022/12/07 00:22:59;;;;;;;257.35;72.63;;;6.80;99.90;;;;;;5076027;28;20096;-77
2022/12/07 00:25:25;;;;;;;249.93;74.30;;;6.80;99.90;;;;;;5076009;28;20024;-77
2022/12/07 00:27:55;;;;;;;260.63;77.28;;;6.80;99.90;;;;;;5076063;28;20067;-77
2022/12/07 00:30:21;;;;;;;257.33;75.00;;;6.80;99.90;;;;;;5076171;28;20016;-78
2022/12/07 00:32:47;;;;;;;271.27;76.32;;;6.70;99.90;;;;;;5075485;28;20017;-76
2022/12/07 00:35:14;;;;;;;289.38;85.97;;;6.70;99.90;;;;;;5075536;28;20028;-78
2022/12/07 00:37:39;;;;;;;283.63;83.40;;;6.70;99.90;;;;;;5075287;28;20020;-77
2022/12/07 00:40:06;;;;;;;261.80;73.57;;;6.80;99.90;;;;;;5074943;28;20028;-76
2022/12/07 00:42:32;;;;;;;239.38;71.10;;;6.80;99.90;;;;;;5073828;28;20046;-78
2022/12/07 00:44:58;;;;;;;237.05;69.30;;;6.80;99.90;;;;;;5074945;28;20514;-77
2022/12/07 00:47:23;;;;;;;231.82;64.05;;;6.80;99.90;;;;;;5075022;28;20032;-76
2022/12/07 00:49:49;;;;;;;256.20;78.43;;;6.80;99.90;;;;;;5075211;28;20028;-75
2022/12/07 00:52:15;;;;;;;222.25;61.53;;;6.80;99.90;;;;;;5074947;28;20028;-77
2022/12/07 00:54:41;;;;;;;259.35;74.47;;;6.80;99.90;;;;;;5074617;28;20055;-76
2022/12/07 00:57:07;;;;;;;292.45;82.57;;;6.90;99.90;;;;;;5074692;28;20074;-76
2022/12/07 00:59:32;;;;;;;267.45;68.85;;;6.90;99.90;;;;;;5074312;28;20035;-76
2022/12/07 01:01:58;;;;;;;254.20;64.10;;;6.90;99.90;;;;;;5074482;28;20024;-77
2022/12/07 01:04:24;;;;;;;278.77;74.47;;;6.80;99.90;;;;;;5074284;28;20029;-77
2022/12/07 01:06:50;;;;;;;283.02;66.28;;;6.80;99.90;;;;;;5073380;28;20021;-77
2022/12/07 01:09:15;;;;;;;270.13;62.53;;;6.80;99.90;;;;;;5074011;28;20064;-78
2022/12/07 01:11:41;;;;;;;261.35;64.05;;;6.80;99.90;;;;;;5074568;28;20103;-78
2022/12/07 01:14:08;;;;;;;287.80;64.15;;;6.80;99.90;;;;;;5073983;28;20031;-76
2022/12/07 01:16:34;;;;;;;284.23;64.72;;;6.80;99.90;;;;;;5074040;28;20040;-76
2022/12/07 01:19:01;;;;;;;262.92;61.03;;;6.80;99.90;;;;;;5074008;28;20094;-77
2022/12/07 01:21:29;;;;;;;249.88;62.83;;;6.80;99.90;;;;;;5073954;28;20044;-77
2022/12/07 01:23:57;;;;;;;244.20;59.28;;;6.80;99.90;;;;;;5074371;28;20016;-76
2022/12/07 01:26:25;;;;;;;236.70;56.55;;;6.80;99.90;;;;;;5073386;28;20031;-76
2022/12/07 01:28:51;;;;;;;218.60;56.08;;;6.70;99.90;;;;;;5066746;28;20028;-75
2022/12/07 01:31:20;;;;;;;224.05;55.72;;;6.80;99.90;;;;;;5074189;28;20443;-75
2022/12/07 01:33:49;;;;;;;222.82;55.00;;;6.80;99.90;;;;;;5072966;28;20028;-76
2022/12/07 01:36:21;;;;;;;198.73;48.33;;;6.80;99.90;;;;;;5073855;28;20021;-77
2022/12/07 01:38:47;;;;;;;;;;;6.70;99.90;;;;;;5074391;28;20025;-76
2022/12/07 01:41:14;;;;;;;182.95;46.95;;;6.80;99.90;;;;;;5073887;28;19909;-75
2022/12/07 01:44:32;;;;;;;181.07;46.15;;;6.70;99.90;;;;;;5072577;28;20046;-77
2022/12/07 01:47:03;;;;;;;182.55;45.72;;;6.80;99.90;;;;;;5065175;28;20489;-76
2022/12/07 01:49:45;;;;;;;169.70;44.67;;;6.80;99.90;;;;;;5072133;28;20024;-76
2022/12/07 01:52:15;;;;;;;159.43;41.38;;;6.80;99.90;;;;;;5073737;28;20457;-77
2022/12/07 01:54:43;;;;;;;162.95;42.20;;;6.70;99.90;;;;;;5067943;28;20035;-76
2022/12/07 01:57:10;;;;;;;162.75;41.97;;;6.70;99.90;;;;;;5073830;28;20070;-76
2022/12/07 01:59:37;;;;;;;146.75;38.80;;;6.70;99.90;;;;;;5073959;28;20035;-76
2022/12/07 02:02:07;;;;;;;141.85;36.40;;;6.70;99.90;;;;;;5073958;28;20202;-77
2022/12/07 02:04:35;;;;;;;143.82;35.30;;;6.70;99.90;;;;;;5073255;28;20459;-75
2022/12/07 02:07:01;;;;;;;141.63;37.25;;;6.70;99.90;;;;;;5073415;28;20016;-77
2022/12/07 02:09:27;;;;;;;139.65;39.08;;;6.70;99.90;;;;;;5072753;28;20363;-76
2022/12/07 02:11:54;;;;;;;143.60;41.58;;;6.70;99.90;;;;;;5073876;28;20454;-76
2022/12/07 02:14:20;;;;;;;120.53;34.90;;;6.70;99.90;;;;;;5072382;28;20028;-75
2022/12/07 02:16:58;;;;;;;148.50;37.95;;;6.70;99.90;;;;;;5074022;28;20043;-76
2022/12/07 02:20:18;;;;;;;140.88;38.83;;;6.70;99.90;;;;;;5073879;28;20516;-78
2022/12/07 02:23:02;;;;;;;139.70;36.95;;;6.70;99.90;;;;;;5014957;28;20483;-76
2022/12/07 02:25:51;;;;;;;133.00;35.20;;;6.60;99.90;;;;;;5031462;28;20476;-77
2022/12/07 02:28:31;;;;;;;114.05;31.77;;;6.50;99.90;;;;;;5031647;28;20063;-76
2022/12/07 02:31:04;;;;;;;126.32;35.13;;;6.50;99.90;;;;;;5031695;28;20069;-76
2022/12/07 02:33:36;;;;;;;127.88;35.13;;;6.50;99.90;;;;;;5031776;28;20060;-77
2022/12/07 02:36:10;;;;;;;127.10;36.25;;;6.50;99.90;;;;;;5031516;28;20033;-76
2022/12/07 02:38:36;;;;;;;130.40;35.30;;;6.60;99.90;;;;;;5031556;28;20066;-76
2022/12/07 02:41:24;;;;;;;146.77;36.05;;;6.50;99.90;;;;;;5032372;28;20450;-77
2022/12/07 02:43:56;;;;;;;135.02;38.88;;;6.50;99.90;;;;;;5030618;28;20037;-77
2022/12/07 02:46:44;;;;;;;138.65;37.88;;;6.50;99.90;;;;;;5049905;28;20028;-76
2022/12/07 02:49:11;;;;;;;135.48;35.00;;;6.50;99.90;;;;;;5048226;28;20072;-76
2022/12/07 02:51:42;;;;;;;144.70;36.50;;;6.50;99.90;;;;;;5031276;28;20026;-75
2022/12/07 02:54:17;;;;;;;150.02;39.42;;;6.50;99.90;;;;;;5031123;28;20065;-77
2022/12/07 02:57:10;;;;;;;146.98;37.05;;;6.40;99.90;;;;;;5061207;28;20536;-76
2022/12/07 02:59:42;;;;;;;171.80;42.90;;;6.40;99.90;;;;;;5072573;28;20023;-78
2022/12/07 03:02:26;;;;;;;173.48;48.67;;;6.40;99.90;;;;;;5073129;28;20100;-77
2022/12/07 03:05:05;;;;;;;197.50;49.88;;;6.40;99.90;;;;;;5070698;28;20028;-76
2022/12/07 03:07:31;;;;;;;173.02;47.45;;;6.50;99.90;;;;;;5073134;28;20439;-77
2022/12/07 03:10:18;;;;;;;196.73;50.70;;;6.50;99.90;;;;;;5072896;28;20056;-77
2022/12/07 03:13:02;;;;;;;174.57;48.65;;;6.50;99.90;;;;;;5073174;28;20426;-76
2022/12/07 03:15:50;;;;;;;150.07;41.05;;;6.50;99.90;;;;;;5073850;28;20016;-76
2022/12/07 03:18:22;;;;;;;143.80;38.67;;;6.60;99.90;;;;;;5053248;28;20041;-76
2022/12/07 03:20:51;;;;;;;136.50;38.15;;;6.60;99.90;;;;;;5053090;28;20021;-77
2022/12/07 03:23:18;;;;;;;129.77;37.17;;;6.60;99.90;;;;;;5053611;28;20044;-77
2022/12/07 03:25:52;;;;;;;128.32;34.42;;;6.60;99.90;;;;;;5053629;28;20021;-76
2022/12/07 03:28:21;;;;;;;118.55;33.88;;;6.50;99.90;;;;;;5054808;28;20028;-78
2022/12/07 03:31:17;;;;;;;121.50;32.00;;;6.50;99.90;;;;;;5072237;28;20070;-77
2022/12/07 03:33:51;;;;;;;103.05;29.77;;;6.50;99.90;;;;;;5071268;28;20490;-77
2022/12/07 03:36:52;;;;;;;129.20;33.38;;;6.50;99.90;;;;;;5073136;28;20027;-77
2022/12/07 03:39:36;;;;;;;110.40;32.05;;;6.50;99.90;;;;;;5072899;28;20458;-77
2022/12/07 03:42:05;;;;;;;98.22;30.58;;;6.50;99.90;;;;;;5073223;28;20070;-76
2022/12/07 03:44:31;;;;;;;103.88;30.25;;;6.50;99.90;;;;;;5070587;28;20046;-77
2022/12/07 03:47:12;;;;;;;117.93;30.58;;;6.50;99.90;;;;;;5072606;28;20023;-77
2022/12/07 03:49:50;;;;;;;112.28;29.98;;;6.60;99.90;;;;;;5070764;28;20442;-77
2022/12/07 03:52:46;;;;;;;92.97;28.33;;;6.50;99.90;;;;;;5072508;28;20020;-76
2022/12/07 03:55:19;;;;;;;93.40;29.45;;;6.50;99.90;;;;;;5072519;28;20031;-76
2022/12/07 03:57:48;;;;;;;96.25;29.55;;;6.50;99.90;;;;;;5075958;28;20028;-78
2022/12/07 04:00:15;;;;;;;96.57;31.25;;;6.50;99.90;;;;;;5076129;28;20025;-77
2022/12/07 04:02:41;;;;;;;103.20;30.40;;;6.50;99.90;;;;;;5075805;28;20095;-76
2022/12/07 04:05:08;;;;;;;97.82;31.02;;;6.50;99.90;;;;;;5075999;28;20124;-76
2022/12/07 04:07:34;;;;;;;95.93;29.88;;;6.60;99.90;;;;;;5075340;28;20025;-77
2022/12/07 04:09:59;;;;;;;103.75;30.45;;;6.50;99.90;;;;;;5074682;28;20029;-77
2022/12/07 04:12:25;;;;;;;103.68;32.05;;;6.60;99.90;;;;;;5075763;28;20044;-77
2022/12/07 04:14:51;;;;;;;99.07;30.95;;;6.60;99.90;;;;;;5076028;28;20032;-77
2022/12/07 04:17:17;;;;;;;109.40;33.58;;;6.50;99.90;;;;;;5076183;28;20036;-76
2022/12/07 04:19:42;;;;;;;102.72;31.85;;;6.60;99.90;;;;;;5075005;28;20017;-77
2022/12/07 04:22:08;;;;;;;107.10;33.85;;;6.60;99.90;;;;;;5076157;28;20038;-76
2022/12/07 04:24:35;;;;;;;109.50;37.92;;;6.50;99.90;;;;;;5076199;28;20027;-76
2022/12/07 04:27:00;;;;;;;115.00;38.38;;;6.60;99.90;;;;;;5075858;28;20146;-77
2022/12/07 04:29:26;;;;;;;132.35;43.35;;;6.60;99.90;;;;;;5075936;28;20111;-77
2022/12/07 04:31:53;;;;;;;114.20;37.28;;;6.50;99.90;;;;;;5075625;28;20031;-76
2022/12/07 04:34:19;;;;;;;122.28;40.05;;;6.50;99.90;;;;;;5075911;28;20032;-76
2022/12/07 04:36:46;;;;;;;135.07;46.60;;;6.50;99.90;;;;;;5076228;28;20101;-76
2022/12/07 04:39:24;;;;;;;130.77;41.45;;;6.50;99.90;;;;;;5075649;28;20020;-76
2022/12/07 04:41:50;;;;;;;112.78;39.17;;;6.50;99.90;;;;;;5075898;28;20439;-76
2022/12/07 04:44:17;;;;;;;107.85;33.47;;;6.50;99.90;;;;;;5074826;28;20095;-76
2022/12/07 04:46:43;;;;;;;107.70;33.40;;;6.50;99.90;;;;;;5073953;28;20035;-76
2022/12/07 04:49:10;;;;;;;114.82;35.67;;;6.50;99.90;;;;;;5073527;28;20368;-77
2022/12/07 04:51:36;;;;;;;113.32;37.22;;;6.50;99.90;;;;;;5074745;28;20020;-76
2022/12/07 04:54:02;;;;;;;115.25;37.05;;;6.50;99.90;;;;;;5074660;28;20026;-77
2022/12/07 04:56:28;;;;;;;118.68;37.17;;;6.50;99.90;;;;;;5074777;28;20402;-75
2022/12/07 04:58:54;;;;;;;110.70;35.28;;;6.50;99.90;;;;;;5073482;28;20056;-76
2022/12/07 05:01:21;;;;;;;98.97;34.58;;;6.50;99.90;;;;;;5073573;28;20025;-77
2022/12/07 05:03:47;;;;;;;110.85;34.85;;;6.40;99.90;;;;;;5073293;28;20024;-78
2022/12/07 05:06:14;;;;;;;110.38;37.38;;;6.50;99.90;;;;;;5070053;28;20333;-77
2022/12/07 05:08:40;;;;;;;103.80;36.58;;;6.50;99.90;;;;;;5074296;28;20042;-77
2022/12/07 05:11:07;;;;;;;100.20;35.35;;;6.50;99.90;;;;;;5074618;28;20054;-76
2022/12/07 05:13:33;;;;;;;98.18;34.88;;;6.50;99.90;;;;;;5074043;28;20032;-77
2022/12/07 05:15:59;;;;;;;94.57;34.00;;;6.50;99.90;;;;;;5074099;28;20024;-76
2022/12/07 05:18:25;;;;;;;88.32;32.50;;;6.60;99.90;;;;;;5074761;28;20025;-77
2022/12/07 05:20:51;;;;;;;102.63;35.50;;;6.60;99.90;;;;;;5074049;28;20013;-77
2022/12/07 05:23:18;;;;;;;101.10;35.42;;;6.70;99.90;;;;;;5072949;28;20024;-77
2022/12/07 05:25:44;;;;;;;134.30;49.10;;;6.60;99.90;;;;;;5074538;28;20025;-75
2022/12/07 05:28:10;;;;;;;123.72;44.53;;;6.60;99.90;;;;;;5073429;28;20032;-77
2022/12/07 05:30:36;;;;;;;115.93;44.47;;;6.60;99.90;;;;;;5075037;28;20038;-77
2022/12/07 05:33:02;;;;;;;102.88;39.15;;;6.60;99.90;;;;;;5074609;28;20443;-77
2022/12/07 05:35:29;;;;;;;137.18;49.45;;;6.60;99.90;;;;;;5074886;28;20183;-77
2022/12/07 05:37:55;;;;;;;129.75;49.92;;;6.60;99.90;;;;;;5074381;28;20035;-77
2022/12/07 05:40:21;;;;;;;132.65;46.08;;;6.60;99.90;;;;;;5074234;28;20352;-76
2022/12/07 05:42:47;;;;;;;132.10;46.17;;;6.60;99.90;;;;;;5074643;28;20027;-76
2022/12/07 05:45:13;;;;;;;111.82;41.05;;;6.60;99.90;;;;;;5074242;28;20021;-76
2022/12/07 05:47:38;;;;;;;120.70;47.75;;;6.60;99.90;;;;;;5074602;28;20036;-77
2022/12/07 05:50:05;;;;;;;109.07;46.88;;;6.60;99.90;;;;;;5074220;28;20020;-76
2022/12/07 05:52:31;;;;;;;107.00;43.38;;;6.50;99.90;;;;;;5074512;28;20028;-76
2022/12/07 05:54:57;;;;;;;96.68;42.28;;;6.50;99.90;;;;;;5072671;28;20024;-76
2022/12/07 05:57:23;;;;;;;96.65;37.88;;;6.50;99.90;;;;;;5073942;28;20466;-76
2022/12/07 05:59:48;;;;;;;88.80;35.05;;;6.50;99.90;;;;;;5073650;28;20475;-77
2022/12/07 06:02:15;;;;;;;63.85;27.25;;;6.50;99.90;;;;;;5073124;28;20017;-78
2022/12/07 06:04:44;;;;;;;72.07;27.58;;;6.50;99.90;;;;;;5073787;28;20028;-76
2022/12/07 06:07:11;;;;;;;66.43;28.65;;;6.50;99.90;;;;;;5073367;28;20016;-76
2022/12/07 06:09:37;;;;;;;67.90;29.33;;;6.50;99.90;;;;;;5072955;28;20112;-77
2022/12/07 06:14:48;;;;;;;68.07;29.45;;;6.50;99.90;;;;;;5073820;28;20070;-78
2022/12/07 06:17:14;;;;;;;69.68;29.10;;;6.50;99.90;;;;;;5073379;28;20048;-77
2022/12/07 06:19:40;;;;;;;55.42;25.55;;;6.40;99.90;;;;;;5072506;28;20033;-78
2022/12/07 06:22:08;;;;;;;69.15;26.52;;;6.50;99.90;;;;;;5071900;28;20028;-76
2022/12/07 06:24:35;;;;;;;56.05;24.63;;;6.40;99.90;;;;;;5073405;28;20131;-76
2022/12/07 06:27:01;;;;;;;68.53;26.20;;;6.40;99.90;;;;;;5073547;28;20085;-76
2022/12/07 06:29:27;;;;;;;56.85;23.92;;;6.40;99.90;;;;;;5071590;28;20492;-77
2022/12/07 06:31:53;;;;;;;57.50;23.15;;;6.40;99.90;;;;;;5073421;28;20025;-78
2022/12/07 06:34:22;;;;;;;59.63;22.65;;;6.40;99.90;;;;;;5071571;28;20119;-77
2022/12/07 06:36:51;;;;;;;49.13;20.88;;;6.40;99.90;;;;;;5072820;28;20020;-77
2022/12/07 06:39:18;;;;;;;59.63;26.00;;;6.40;99.90;;;;;;5071719;28;20508;-77
2022/12/07 06:41:44;;;;;;;63.28;26.70;;;6.40;99.90;;;;;;5073523;28;20033;-77
2022/12/07 06:44:10;;;;;;;88.25;33.35;;;6.40;99.90;;;;;;5066398;28;20035;-78
2022/12/07 06:46:35;;;;;;;127.78;41.97;;;6.40;99.90;;;;;;5071625;28;20107;-77
2022/12/07 06:49:02;;;;;;;100.28;38.80;;;6.40;99.90;;;;;;5072931;28;20040;-77
2022/12/07 06:51:27;;;;;;;92.18;36.40;;;6.40;99.90;;;;;;5072749;28;20059;-78
2022/12/07 06:53:53;;;;;;;83.00;35.65;;;6.40;99.90;;;;;;5072766;28;20029;-78
2022/12/07 06:56:19;;;;;;;76.13;32.95;;;6.40;99.90;;;;;;5072716;28;20024;-77
2022/12/07 06:58:45;;;;;;;65.03;28.85;;;6.50;99.90;;;;;;5071675;28;20107;-78
2022/12/07 07:01:16;;;;;;;68.32;27.30;;;6.50;99.90;;;;;;5071662;28;20056;-77
2022/12/07 07:03:42;;;;;;;55.38;26.23;;;6.50;99.90;;;;;;5073172;28;20023;-77
2022/12/07 07:06:08;;;;;;;78.72;38.03;;;6.50;99.90;;;;;;5073028;28;20024;-78
2022/12/07 07:08:35;;;;;;;101.72;46.97;;;6.50;99.90;;;;;;5072955;28;20047;-77
2022/12/07 07:11:01;;;;;;;278.88;153.35;;;6.50;99.90;;;;;;5072629;28;20024;-76
2022/12/07 07:13:27;;;;;;;172.75;83.20;;;6.50;99.90;;;;;;5072792;28;20020;-77
2022/12/07 07:15:54;;;;;;;217.23;112.93;;;6.60;99.90;;;;;;5072324;28;20028;-77
2022/12/07 07:18:20;;;;;;;100.70;45.83;;;6.50;99.90;;;;;;5072229;28;20090;-77
2022/12/07 07:20:46;;;;;;;79.13;37.63;;;6.50;99.90;;;;;;5072781;28;20067;-78
2022/12/07 07:23:11;;;;;;;139.80;65.95;;;6.50;99.90;;;;;;5072369;28;20473;-78
2022/12/07 07:25:37;;;;;;;102.18;45.67;;;6.60;99.90;;;;;;5071440;28;20021;-78
2022/12/07 07:28:04;;;;;;;101.97;46.33;;;6.60;99.90;;;;;;5073526;28;20131;-78
2022/12/07 07:30:30;;;;;;;88.15;39.92;;;6.60;99.90;;;;;;5075043;28;20344;-77
2022/12/07 07:33:00;;;;;;;67.85;31.80;;;6.60;99.90;;;;;;5075614;28;20023;-78
2022/12/07 07:35:27;;;;;;;85.57;39.70;;;6.60;99.90;;;;;;5076792;28;20016;-77
2022/12/07 07:37:54;;;;;;;98.18;43.58;;;6.60;99.90;;;;;;5076915;28;20095;-77
2022/12/07 07:40:19;;;;;;;215.73;102.47;;;6.60;99.90;;;;;;5076454;28;20025;-78
2022/12/07 07:42:48;;;;;;;328.17;144.73;;;6.70;99.90;;;;;;5076873;28;20077;-77
2022/12/07 07:45:14;;;;;;;421.50;182.52;;;6.60;99.90;;;;;;5076780;28;20452;-77
2022/12/07 07:47:40;;;;;;;205.30;82.93;;;6.70;99.90;;;;;;5076632;28;20031;-78
2022/12/07 07:50:06;;;;;;;109.28;58.13;;;6.70;99.90;;;;;;5076405;28;20099;-77
2022/12/07 07:52:32;;;;;;;106.13;52.55;;;6.70;99.90;;;;;;5077215;28;20100;-78
2022/12/07 07:54:58;;;;;;;118.80;60.35;;;6.60;99.90;;;;;;5074828;28;20116;-78
2022/12/07 07:57:24;;;;;;;129.23;62.85;;;6.70;99.90;;;;;;5075807;28;20031;-76
2022/12/07 07:59:49;;;;;;;189.32;86.30;;;6.70;99.90;;;;;;5076164;28;20016;-77
2022/12/07 08:02:17;;;;;;;197.95;90.57;;;6.70;99.90;;;;;;5075221;28;20104;-77
2022/12/07 08:04:44;;;;;;;224.45;128.10;;;6.70;99.90;;;;;;5075901;28;20039;-78
2022/12/07 08:07:10;;;;;;;147.25;81.18;;;6.70;99.90;;;;;;5074012;28;20025;-78
2022/12/07 08:09:36;;;;;;;209.13;109.50;;;6.70;99.90;;;;;;5074707;28;20028;-77
2022/12/07 08:12:02;;;;;;;183.95;99.32;;;6.80;99.90;;;;;;5076556;28;20473;-77
2022/12/07 08:14:28;;;;;;;133.57;73.35;;;6.70;99.90;;;;;;5076081;28;20012;-80
2022/12/07 08:16:54;;;;;;;183.70;104.78;;;6.80;99.90;;;;;;5076218;28;20386;-78
2022/12/07 08:19:20;;;;;;;137.70;76.00;;;6.70;99.90;;;;;;5075757;28;20111;-77
2022/12/07 08:21:46;;;;;;;124.28;67.70;;;6.70;99.90;;;;;;5075328;28;20153;-79
2022/12/07 08:24:12;;;;;;;137.50;76.45;;;6.70;99.90;;;;;;5076040;28;20024;-77
2022/12/07 08:26:38;;;;;;;272.08;145.13;;;6.70;99.90;;;;;;5075781;28;20021;-77
2022/12/07 08:29:04;;;;;;;140.15;70.75;;;6.70;99.90;;;;;;5075106;28;20414;-77
2022/12/07 08:31:30;;;;;;;137.82;68.88;;;6.70;99.90;;;;;;5074357;28;20032;-78
2022/12/07 08:33:56;;;;;;;185.30;100.72;;;6.70;99.90;;;;;;5074813;28;20032;-77
2022/12/07 08:36:22;;;;;;;145.02;74.20;;;6.80;99.90;;;;;;5071933;28;20070;-78
2022/12/07 08:38:49;;;;;;;258.88;116.45;;;6.90;99.90;;;;;;5074414;28;20660;-78
2022/12/07 08:41:15;;;;;;;289.25;148.18;;;7.00;99.90;;;;;;5073567;28;20023;-77
2022/12/07 08:43:41;;;;;;;122.40;60.70;;;6.90;99.90;;;;;;5075398;28;20012;-77
2022/12/07 08:46:21;;;;;;;112.32;58.22;;;6.90;99.90;;;;;;5072941;28;20020;-76
2022/12/07 08:48:55;;;;;;;149.82;84.90;;;6.90;99.90;;;;;;5074552;28;20028;-77
2022/12/07 08:51:22;;;;;;;298.60;191.88;;;6.90;99.90;;;;;;5074163;28;20021;-77
2022/12/07 08:53:49;;;;;;;75.45;45.42;;;7.00;99.90;;;;;;5075273;28;20021;-78
2022/12/07 08:56:16;;;;;;;85.57;47.15;;;7.00;99.90;;;;;;5073481;28;20028;-78
2022/12/07 08:58:42;;;;;;;105.55;53.88;;;7.00;99.90;;;;;;5074392;28;20123;-78
2022/12/07 09:01:08;;;;;;;103.30;55.80;;;7.00;99.90;;;;;;5075380;28;20025;-77
2022/12/07 09:03:34;;;;;;;128.82;70.03;;;7.10;99.90;;;;;;5075278;28;20108;-79
2022/12/07 09:06:00;;;;;;;115.88;61.35;;;7.00;99.90;;;;;;5074929;28;20020;-77
2022/12/07 09:08:34;;;;;;;132.70;75.60;;;7.10;99.90;;;;;;5074464;28;20517;-79
2022/12/07 09:11:00;;;;;;;293.38;165.27;;;7.00;99.90;;;;;;5073795;28;20468;-77
2022/12/07 09:13:26;;;;;;;125.72;67.45;;;7.00;99.90;;;;;;5075412;28;20073;-78
2022/12/07 09:15:52;;;;;;;144.68;77.55;;;7.10;99.90;;;;;;5074505;28;20021;-79
2022/12/07 09:18:17;;;;;;;127.82;73.38;;;7.10;99.90;;;;;;5074964;28;20483;-77
2022/12/07 09:20:43;;;;;;;107.35;54.85;;;7.10;99.90;;;;;;5075110;28;20024;-77
2022/12/07 09:23:09;;;;;;;97.22;49.83;;;7.00;99.90;;;;;;5074907;28;20031;-79
2022/12/07 09:25:35;;;;;;;151.50;80.05;;;7.00;99.90;;;;;;5073509;28;20023;-79
2022/12/07 09:28:01;;;;;;;187.90;98.63;;;7.00;99.90;;;;;;5074442;28;20063;-77
2022/12/07 09:30:27;;;;;;;259.25;149.50;;;7.10;99.90;;;;;;5074874;28;20017;-74
2022/12/07 09:32:55;;;;;;;171.60;100.13;;;7.10;99.90;;;;;;5074648;28;20104;-77
2022/12/07 09:35:21;;;;;;;201.80;115.78;;;7.10;99.90;;;;;;5074646;28;20467;-77
2022/12/07 09:37:46;;;;;;;161.93;86.80;;;7.10;99.90;;;;;;5074565;28;20028;-78
2022/12/07 09:40:14;;;;;;;223.18;119.72;;;7.10;99.90;;;;;;5074498;28;20024;-78
2022/12/07 09:42:44;;;;;;;268.90;122.95;;;7.10;99.90;;;;;;5072836;28;20028;-78
2022/12/07 09:45:18;;;;;;;142.95;77.70;;;7.20;99.90;;;;;;5073935;28;20072;-77
2022/12/07 09:47:45;;;;;;;135.45;73.45;;;7.20;99.90;;;;;;5074263;28;20044;-77
2022/12/07 09:50:17;;;;;;;101.47;56.33;;;7.20;99.90;;;;;;5074403;28;20081;-77
2022/12/07 09:52:43;;;;;;;;;;;7.30;99.90;;;;;;5074654;28;20025;-78
2022/12/07 09:55:15;;;;;;;212.93;114.25;;;7.30;99.90;;;;;;5074447;28;19904;-78
2022/12/07 09:57:42;;;;;;;189.32;99.95;;;7.40;99.90;;;;;;5074310;28;20025;-78
2022/12/07 10:00:19;;;;;;;199.25;110.55;;;7.40;99.90;;;;;;5074411;28;20447;-78
2022/12/07 10:03:07;;;;;;;299.73;141.18;;;7.50;99.90;;;;;;5074476;28;20028;-78
2022/12/07 10:05:41;;;;;;;242.27;126.05;;;7.30;99.90;;;;;;5074169;28;20040;-78
2022/12/07 10:08:12;;;;;;;280.17;157.18;;;7.40;99.90;;;;;;5073720;28;20028;-79
2022/12/07 10:10:39;;;;;;;267.20;161.05;;;7.40;99.90;;;;;;5074208;28;20050;-78
2022/12/07 10:13:10;;;;;;;281.60;156.68;;;7.40;99.90;;;;;;5072637;28;20021;-79
2022/12/07 10:15:43;;;;;;;362.95;192.05;;;7.50;99.90;;;;;;5072871;28;20026;-77
2022/12/07 10:18:27;;;;;;;243.73;127.10;;;7.50;99.90;;;;;;5073489;28;20421;-78
2022/12/07 10:21:01;;;;;;;131.23;81.55;;;7.40;99.90;;;;;;5072210;28;20028;-79
2022/12/07 10:23:27;;;;;;;198.30;105.13;;;7.50;99.90;;;;;;5074107;28;20017;-77
2022/12/07 10:25:54;;;;;;;199.93;119.35;;;7.40;99.90;;;;;;5073588;28;20366;-79
2022/12/07 10:28:21;;;;;;;289.10;179.20;;;7.50;99.90;;;;;;5073694;28;20025;-78
2022/12/07 10:30:59;;;;;;;181.23;104.85;;;7.50;99.90;;;;;;5072891;28;20016;-77
2022/12/07 10:33:48;;;;;;;178.32;100.65;;;7.60;99.90;;;;;;5073708;28;20020;-78
2022/12/07 10:36:21;;;;;;;206.13;114.22;;;7.60;99.90;;;;;;5073584;28;20017;-79
2022/12/07 10:38:58;;;;;;;209.40;117.32;;;7.50;99.90;;;;;;5073600;28;20029;-78
2022/12/07 10:41:23;;;;;;;414.52;251.85;;;7.50;99.90;;;;;;5072625;28;20103;-79
2022/12/07 10:43:52;;;;;;;429.25;264.92;;;7.50;99.90;;;;;;5072578;28;20075;-78
2022/12/07 10:46:40;;;;;;;326.85;198.88;;;7.50;99.90;;;;;;5073736;28;20099;-78
2022/12/07 10:49:16;;;;;;;251.40;129.88;;;7.50;99.90;;;;;;5073733;28;20033;-79
2022/12/07 10:52:00;;;;;;;451.70;236.18;;;7.60;99.90;;;;;;5073925;28;20047;-79
2022/12/07 10:54:55;;;;;;;265.00;139.15;;;7.50;99.90;;;;;;5073764;28;20017;-78
2022/12/07 10:57:46;;;;;;;389.80;207.48;;;7.50;99.90;;;;;;5073230;28;20093;-78
2022/12/07 11:00:25;;;;;;;758.30;487.27;;;7.60;99.90;;;;;;5073238;28;20126;-79
2022/12/07 11:03:03;;;;;;;568.40;349.33;;;7.60;99.90;;;;;;5073115;28;20052;-78
2022/12/07 11:06:05;;;;;;;567.25;360.23;;;7.60;99.90;;;;;;5075893;28;20031;-78
2022/12/07 11:08:59;;;;;;;243.70;151.20;;;7.60;99.90;;;;;;5077794;28;20036;-78
2022/12/07 11:11:33;;;;;;;289.70;195.98;;;7.60;99.90;;;;;;5077568;28;20191;-78
2022/12/07 11:14:20;;;;;;;386.38;279.98;;;7.70;99.90;;;;;;5077228;28;20407;-78
2022/12/07 11:16:52;;;;;;;179.93;111.32;;;7.70;99.90;;;;;;5076925;28;20044;-79
2022/12/07 11:19:27;;;;;;;171.98;108.68;;;7.90;99.90;;;;;;5077516;28;20032;-78
2022/12/07 11:21:55;;;;;;;100.38;64.38;;;8.00;99.90;;;;;;5077337;28;20466;-79
2022/12/07 11:24:32;;;;;;;123.20;75.43;;;7.90;99.90;;;;;;5077040;28;20498;-77
2022/12/07 11:27:07;;;;;;;97.10;57.95;;;7.90;99.90;;;;;;5077080;28;20456;-79
2022/12/07 11:29:44;;;;;;;110.95;60.60;;;7.80;99.90;;;;;;5077241;28;20025;-78
2022/12/07 11:32:35;;;;;;;126.07;73.82;;;7.80;99.90;;;;;;5076975;28;20020;-78
2022/12/07 11:35:24;;;;;;;113.22;65.80;;;7.90;99.90;;;;;;5077249;28;20108;-78
2022/12/07 11:37:58;;;;;;;114.63;64.88;;;7.90;99.90;;;;;;5076655;28;20056;-78
2022/12/07 11:40:38;;;;;;;82.03;49.00;;;7.90;99.90;;;;;;5077290;28;20025;-79
2022/12/07 11:43:36;;;;;;;146.75;87.28;;;7.90;99.90;;;;;;5075563;28;20115;-79
2022/12/07 11:46:10;;;;;;;89.38;53.83;;;8.00;99.90;;;;;;5017736;28;20025;-77
2022/12/07 11:48:45;;;;;;;151.75;89.78;;;7.90;99.90;;;;;;5017911;28;20041;-78
2022/12/07 11:51:13;;;;;;;197.38;114.03;;;7.90;99.90;;;;;;5034355;28;20018;-78
2022/12/07 11:53:43;;;;;;;108.70;58.90;;;7.90;99.90;;;;;;5034547;28;20496;-78
2022/12/07 11:56:13;;;;;;;153.73;80.15;;;7.80;99.90;;;;;;5034393;28;20527;-77
2022/12/07 11:58:50;;;;;;;107.68;61.60;;;7.80;99.90;;;;;;5034310;28;20068;-78
2022/12/07 12:01:30;;;;;;;71.82;41.88;;;7.70;99.90;;;;;;5034641;28;20176;-77
2022/12/07 12:04:11;;;;;;;189.32;100.30;;;7.70;99.90;;;;;;5034577;28;20463;-78
2022/12/07 12:06:42;;;;;;;442.38;226.63;;;7.70;99.90;;;;;;5034124;28;20029;-78
2022/12/07 12:09:29;;;;;;;348.48;182.77;;;7.80;99.90;;;;;;5034058;28;20207;-78
2022/12/07 12:12:06;;;;;;;123.13;59.55;;;7.70;99.90;;;;;;5017599;28;20021;-78
2022/12/07 12:14:37;;;;;;;566.13;285.58;;;7.60;99.90;;;;;;5018082;28;20495;-78
2022/12/07 12:17:12;;;;;;;301.20;140.50;;;7.70;99.90;;;;;;5032663;28;20072;-79
2022/12/07 12:19:41;;;;;;;159.45;81.43;;;7.70;99.90;;;;;;5033853;28;20048;-78
2022/12/07 12:22:19;;;;;;;229.20;99.32;;;7.70;99.90;;;;;;5063908;28;20077;-79
2022/12/07 12:24:50;;;;;;;257.85;119.40;;;7.70;99.90;;;;;;5076259;28;20017;-78
2022/12/07 12:27:30;;;;;;;204.10;93.28;;;7.60;99.90;;;;;;5075780;28;20074;-78
2022/12/07 12:30:02;;;;;;;92.93;52.20;;;7.70;99.90;;;;;;5075801;28;20036;-78
2022/12/07 12:32:40;;;;;;;64.07;36.13;;;7.70;99.90;;;;;;5076282;28;20356;-78
2022/12/07 12:35:23;;;;;;;216.27;115.30;;;7.70;99.90;;;;;;5076150;28;20115;-78
2022/12/07 12:37:51;;;;;;;;;;;7.70;99.90;;;;;;5076329;28;20021;-78
2022/12/07 12:40:17;;;;;;;46.97;28.83;;;7.60;99.90;;;;;;5075760;28;19933;-78
2022/12/07 12:42:55;;;;;;;298.67;154.98;;;7.60;99.90;;;;;;5074632;28;20103;-78
2022/12/07 12:45:27;;;;;;;198.63;108.82;;;7.60;99.90;;;;;;5075741;28;20058;-79
2022/12/07 12:48:01;;;;;;;69.25;40.03;;;7.60;99.90;;;;;;5075429;28;20025;-78